Home > Products > Valid Products > TAF

000
FTUS42 KILM 270500
TAFFLO
TAF
KFLO 270526Z 2706/2806 01006KT P6SM SKC
     FM271400 02008KT P6SM SKC
     FM271800 35008KT P6SM SKC
     FM280000 VRB02KT P6SM SKC=



000
FTUS42 KILM 270500
TAFLBT
TAF
KLBT 270526Z 2706/2806 01004KT P6SM SKC
     FM271400 01008KT P6SM SKC
     FM271800 35007KT P6SM SKC
     FM280000 VRB01KT P6SM SKC=



000
FTUS42 KILM 270500
TAFILM
TAF
KILM 270526Z 2706/2806 02006KT P6SM SKC
     FM271400 36010G15KT P6SM SKC
     FM272000 36009KT P6SM SKC
     FM280000 VRB03KT P6SM SKC=



000
FTUS42 KILM 270500
TAFMYR
TAF
KMYR 270526Z 2706/2806 36008KT P6SM SKC
     FM271400 36011G15KT P6SM SKC
     FM271900 34010KT P6SM SKC
     FM280000 VRB04KT P6SM SKC
      AMD LTD TO CLD VIS AND WIND TIL 271100=



000
FTUS42 KILM 270500
TAFCRE
TAF
KCRE 270526Z 2706/2806 02006KT P6SM FEW040
     FM271500 01009G15KT P6SM SKC
     FM271900 36009KT P6SM SKC
     FM280000 VRB03KT P6SM SKC
      AMD NOT SKED=



000
FTUS42 KILM 262300
TAFMYR
TAF
KMYR 262320Z 2700/2724 03007KT P6SM FEW030
     FM271400 36011G15KT P6SM SKC
     FM271900 34010KT P6SM SKC
      AMD LTD TO CLD VIS AND WIND 2704/2711=



000
FTUS42 KILM 262300
TAFLBT
TAF
KLBT 262320Z 2700/2724 07006KT P6SM FEW050
     FM271400 01008KT P6SM SKC
     FM271800 35007KT P6SM SKC=



000
FTUS42 KILM 262300
TAFILM
TAF
KILM 262320Z 2700/2724 01007KT P6SM FEW040
     FM271400 36010G15KT P6SM SKC
     FM272000 36009KT P6SM SKC=



000
FTUS42 KILM 262300
TAFCRE
TAF
KCRE 262320Z 2700/2724 03007KT P6SM FEW040
     FM271500 01009G15KT P6SM SKC
     FM271900 36009KT P6SM SKC
      AMD NOT SKED=



000
FTUS42 KILM 262300
TAFFLO
TAF
KFLO 262320Z 2700/2724 07006KT P6SM FEW050
     FM271400 02008KT P6SM SKC
     FM271800 35008KT P6SM SKC=



000
FTUS42 KILM 261700
TAFFLO
TAF
KFLO 261721Z 2618/2718 03011G18KT P6SM FEW040
     FM270000 03004KT P6SM SKC
     FM271400 02008KT P6SM SKC=



000
FTUS42 KILM 261700
TAFLBT
TAF
KLBT 261721Z 2618/2718 04010G15KT P6SM BKN035
     FM270000 02004KT P6SM SKC
     FM271400 02008KT P6SM SKC=



000
FTUS42 KILM 261700
TAFCRE
TAF
KCRE 261721Z 2618/2718 03012G18KT P6SM SCT040
     FM270000 03007KT P6SM FEW040
     FM271400 01009KT P6SM SKC
      AMD NOT SKED=



000
FTUS42 KILM 261700
TAFMYR
TAF
KMYR 261721Z 2618/2718 03012KT P6SM SCT045
     FM270000 03007KT P6SM FEW040
     FM271400 01009KT P6SM SKC=



000
FTUS42 KILM 261700
TAFILM
TAF
KILM 261721Z 2618/2718 03010KT P6SM SCT040
     FM270000 03007KT P6SM FEW040
     FM271400 36009KT P6SM SKC=



000
FTUS42 KILM 261100
TAFLBT
TAF
KLBT 261120Z 2612/2712 04006KT P6SM SCT050
     FM261300 04011KT P6SM SKC
     FM261600 04010G15KT P6SM FEW040
     FM270000 02004KT P6SM SKC=



000
FTUS42 KILM 261100
TAFILM
TAF
KILM 261120Z 2612/2712 02009KT P6SM FEW100
     FM261400 02010KT P6SM SKC
     FM261700 05012G18KT P6SM SCT040
     FM270000 04008KT P6SM FEW040=



000
FTUS42 KILM 261100
TAFCRE
TAF
KCRE 261120Z 2612/2712 03011KT P6SM SCT030
     FM261400 04011KT P6SM SKC
     FM261700 06010G15KT P6SM SCT040
     FM270000 04006KT P6SM FEW040=



000
FTUS42 KILM 261100
TAFFLO
TAF
KFLO 261120Z 2612/2712 03008KT P6SM SCT050
     FM261300 06009KT P6SM SKC
     FM261500 03011G18KT P6SM FEW040
     FM270000 03004KT P6SM SKC=



000
FTUS42 KILM 261100
TAFMYR
TAF
KMYR 261120Z 2612/2712 02011KT P6SM BKN120
     FM261400 05012KT P6SM SKC
     FM261700 03012G18KT P6SM SCT040
     FM270000 04008KT P6SM FEW040=



000
FTUS42 KILM 260500
TAFMYR
TAF
KMYR 260528Z 2606/2706 02011KT P6SM BKN120
     FM261400 05012KT P6SM SKC
     FM261700 03012G18KT P6SM SCT040
     FM270000 04008KT P6SM FEW040
      AMD LTD TO CLD VIS AND WIND TIL 261100=



000
FTUS42 KILM 260500
TAFILM
TAF
KILM 260528Z 2606/2706 02009KT P6SM FEW100
     FM261400 02010KT P6SM SKC
     FM261700 05012G18KT P6SM SCT040
     FM270000 04008KT P6SM FEW040=



000
FTUS42 KILM 260500
TAFLBT
TAF
KLBT 260528Z 2606/2706 04006KT P6SM SCT050
     FM261300 04011KT P6SM SKC
     FM261600 04010G15KT P6SM FEW040
     FM270000 02004KT P6SM SKC=



000
FTUS42 KILM 260500
TAFFLO
TAF
KFLO 260528Z 2606/2706 03008KT P6SM SCT050
     FM261300 06009KT P6SM SKC
     FM261500 03011G18KT P6SM FEW040
     FM270000 03004KT P6SM SKC=



000
FTUS42 KILM 260500
TAFCRE
TAF
KCRE 260528Z 2606/2706 03011KT P6SM SCT030
     FM261400 04011KT P6SM SKC
     FM261700 06010G15KT P6SM SCT040
     FM270000 04006KT P6SM FEW040
      AMD NOT SKED=



000
FTUS42 KILM 252300
TAFMYR
TAF
KMYR 252329Z 2600/2624 01012KT P6SM BKN030
     FM260200 03011KT P6SM FEW030
     FM261400 05012KT P6SM SKC
     FM261700 03012G18KT P6SM SCT040
      AMD LTD TO CLD VIS AND WIND 2604/2611=



000
FTUS42 KILM 252300
TAFCRE
TAF
KCRE 252329Z 2600/2624 04011KT P6SM SCT030
     FM261400 04011KT P6SM SKC
     FM261700 06010G15KT P6SM SCT040
      AMD NOT SKED=



000
FTUS42 KILM 252300
TAFFLO
TAF
KFLO 252329Z 2600/2624 05008KT P6SM SCT030 BKN045
     FM260300 03007KT P6SM FEW030
     FM261300 06009KT P6SM SKC
     FM261500 03011G18KT P6SM FEW040=



000
FTUS42 KILM 252300
TAFLBT
TAF
KLBT 252329Z 2600/2624 03008KT P6SM OVC030
     FM260200 03005KT P6SM SCT030
     FM261300 04011KT P6SM SKC
     FM261600 04010G15KT P6SM FEW040=



000
FTUS42 KILM 252300
TAFILM
TAF
KILM 252329Z 2600/2624 02007KT P6SM FEW040 SCT070
     FM260600 03007KT P6SM FEW070
     FM261400 02010KT P6SM SKC
     FM261700 05012G15KT P6SM SCT040=



000
FTUS42 KILM 251700
TAFILM
TAF
KILM 251721Z 2518/2618 03011G18KT P6SM BKN025
      TEMPO 2520/2524 SCT025
     FM260000 03007KT P6SM FEW030
     FM260600 03007KT P6SM SKC
     FM261400 02012KT P6SM SKC=



000
FTUS42 KILM 251700
TAFFLO
TAF
KFLO 251721Z 2518/2618 07011G16KT P6SM SCT030
     FM252200 07012KT P6SM BKN025
     FM260300 07008KT P6SM SCT030
     FM261300 07009KT P6SM SKC=



000
FTUS42 KILM 251700
TAFLBT
TAF
KLBT 251721Z 2518/2618 03010G16KT P6SM BKN025
      TEMPO 2521/2601 SCT025
     FM260300 03010KT P6SM SCT030
     FM261300 04011KT P6SM SKC=



000
FTUS42 KILM 251700
TAFMYR
TAF
KMYR 251721Z 2518/2618 04012G20KT P6SM BKN028
      TEMPO 2520/2524 SCT030
     FM260000 05009KT P6SM FEW030
     FM261400 05012KT P6SM SKC=



000
FTUS42 KILM 251700
TAFCRE
TAF
KCRE 251721Z 2518/2618 04011G19KT P6SM BKN028
      TEMPO 2520/2524 SCT030
     FM260000 04007KT P6SM FEW030
     FM261400 04011KT P6SM SKC
      AMD NOT SKED=



000
FTUS42 KILM 251600 AAA
TAFMYR
TAF AMD
KMYR 251607Z 2516/2612 04014KT P6SM SCT030 SCT070
     FM260000 05010KT P6SM FEW030=



000
FTUS42 KILM 251600 AAA
TAFILM
TAF AMD
KILM 251607Z 2516/2612 04013G20KT P6SM SCT030 BKN050
      TEMPO 2516/2518 BKN028
     FM260000 03007KT P6SM FEW030=



000
FTUS42 KILM 251600 AAB
TAFFLO
TAF AMD
KFLO 251607Z 2516/2612 05012G19KT P6SM SCT025
     FM251900 04012G19KT P6SM SCT035
     FM260000 04007KT P6SM FEW050=



000
FTUS42 KILM 251500 AAA
TAFFLO
TAF AMD
KFLO 251549Z 2516/2612 05012G19KT P6SM SCT025
      TEMPO 2516/2519 BKN025
     FM251900 04012G19KT P6SM SCT035
     FM260000 04007KT P6SM FEW050=



000
FTUS42 KILM 251500 AAA
TAFLBT
TAF AMD
KLBT 251530Z 2516/2612 04011G18KT P6SM BKN020
     FM251800 05011G20KT P6SM SCT040
     FM260000 03005KT P6SM FEW050=



000
FTUS42 KILM 251100
TAFILM
TAF
KILM 251120Z 2512/2612 02012KT P6SM SCT045
     FM251400 04013G20KT P6SM SCT030 SCT070
      TEMPO 2519/2522 BKN050
     FM260000 03007KT P6SM FEW030=



000
FTUS42 KILM 251100
TAFCRE
TAF
KCRE 251120Z 2512/2612 03009KT P6SM FEW025
     FM251400 05012G19KT P6SM SCT030 SCT070
     FM260000 04007KT P6SM FEW030=



000
FTUS42 KILM 251100
TAFFLO
TAF
KFLO 251120Z 2512/2612 03009KT P6SM SKC
     FM251400 05012G19KT P6SM SCT050
      TEMPO 2519/2522 BKN050
     FM260000 04007KT P6SM FEW050=



000
FTUS42 KILM 251100
TAFMYR
TAF
KMYR 251120Z 2512/2612 01010KT P6SM SKC
     FM251400 04015G20KT P6SM SCT030 SCT070
     FM260000 05010KT P6SM FEW030=



000
FTUS42 KILM 251100
TAFLBT
TAF
KLBT 251120Z 2512/2612 03008KT P6SM SKC
     FM251400 04011G18KT P6SM SCT050
      TEMPO 2519/2522 BKN050
     FM260000 03005KT P6SM FEW050=



000
FTUS42 KILM 250500
TAFMYR
TAF
KMYR 250531Z 2506/2606 01010KT P6SM SKC
     FM251400 04015G20KT P6SM SCT030 SCT070
     FM260000 05010KT P6SM FEW030
      AMD LTD TO CLD VIS AND WIND TIL 251100=



000
FTUS42 KILM 250500
TAFFLO
TAF
KFLO 250531Z 2506/2606 03009KT P6SM SKC
     FM251400 05012G19KT P6SM SCT050
     FM260000 04007KT P6SM FEW050=



000
FTUS42 KILM 250500
TAFLBT
TAF
KLBT 250531Z 2506/2606 03008KT P6SM SKC
     FM251400 04011G18KT P6SM SCT050
     FM260000 03005KT P6SM FEW050=



000
FTUS42 KILM 250500
TAFCRE
TAF
KCRE 250531Z 2506/2606 03009KT P6SM FEW025
     FM251400 05012G19KT P6SM SCT030 SCT070
     FM260000 04007KT P6SM FEW030
      AMD NOT SKED=



000
FTUS42 KILM 250500
TAFILM
TAF
KILM 250531Z 2506/2606 02012KT P6SM SCT045
     FM251400 04013G20KT P6SM SCT030 SCT070
     FM260000 03007KT P6SM FEW030=



000
FTUS42 KILM 242300 CCA
TAFMYR
TAF COR
KMYR 242357Z 2500/2524 03009KT P6SM FEW030
     FM251400 04015G20KT P6SM SCT035 SCT070
      AMD LTD TO CLD VIS AND WIND 2504/2511=



000
FTUS42 KILM 242300 CCA
TAFILM
TAF COR
KILM 242357Z 2500/2524 02008KT P6SM FEW030
     FM251400 04013G20KT P6SM SCT035 SCT070=



000
FTUS42 KILM 242300
TAFILM
TAF
KILM 242322Z 2500/2524 03009KT P6SM FEW030 SCT060
     FM251400 04013G20KT P6SM SCT035 SCT070=



000
FTUS42 KILM 242300
TAFFLO
TAF
KFLO 242322Z 2500/2524 04008KT P6SM SCT060
     FM251400 05012G18KT P6SM SCT050=



000
FTUS42 KILM 242300
TAFMYR
TAF
KMYR 242322Z 2500/2524 03010KT P6SM FEW030 SCT060
     FM251400 04015G20KT P6SM SCT035 SCT070
      AMD LTD TO CLD VIS AND WIND 2504/2511=



000
FTUS42 KILM 242300
TAFLBT
TAF
KLBT 242322Z 2500/2524 03008KT P6SM SCT060
     FM251400 04011G17KT P6SM SCT050=



000
FTUS42 KILM 242300
TAFCRE
TAF
KCRE 242322Z 2500/2524 04008KT P6SM FEW030 SCT060
     FM251400 05012G18KT P6SM SCT035 SCT070
      AMD NOT SKED=



000
FTUS42 KILM 242100 AAA
TAFMYR
TAF AMD
KMYR 242134Z 2422/2518 05015KT P6SM SCT030 BKN045
     FM250100 04010KT P6SM SCT040 SCT080
     FM250700 02009KT P6SM SCT012=



000
FTUS42 KILM 241700
TAFCRE
TAF
KCRE 241720Z 2418/2518 02013G20KT P6SM SCT030 BKN045
     FM250100 05008KT P6SM SCT040 SCT080
     FM250700 03007KT P6SM SCT012
      AMD NOT SKED=



000
FTUS42 KILM 241700
TAFMYR
TAF
KMYR 241720Z 2418/2518 02012G22KT P6SM SCT030 BKN045
     FM250100 04010KT P6SM SCT040 SCT080
     FM250700 02009KT P6SM SCT012=



000
FTUS42 KILM 241700
TAFLBT
TAF
KLBT 241720Z 2418/2518 04012G20KT P6SM SCT035 BKN050
     FM250000 04007KT P6SM SKC
     FM251400 03009KT P6SM SCT020=



000
FTUS42 KILM 241700
TAFFLO
TAF
KFLO 241720Z 2418/2518 05010G18KT P6SM SCT035 BKN050
     FM250000 04007KT P6SM SKC
     FM251400 03009KT P6SM SCT020=



000
FTUS42 KILM 241700
TAFILM
TAF
KILM 241720Z 2418/2518 04012G20KT P6SM SCT030 BKN045
     FM250000 04009KT P6SM SCT040
     FM250700 02009KT P6SM SCT012=



000
FTUS42 KILM 241500 AAA
TAFILM
TAF AMD
KILM 241541Z 2416/2512 04010G20KT P6SM BKN035 BKN060
     FM242200 05013KT P6SM SCT040
     FM250200 02009KT P6SM SCT012=



000
FTUS42 KILM 241500 AAA
TAFCRE
TAF AMD
KCRE 241540Z 2416/2512 04013G20KT P6SM SCT030 SCT250
     FM241900 05014G20KT P6SM BKN035 BKN060
     FM242200 05012KT P6SM SCT040 SCT080
     FM250200 04009KT P6SM SCT012=



000
FTUS42 KILM 241500 AAA
TAFMYR
TAF AMD
KMYR 241539Z 2416/2512 04013G20KT P6SM SCT030 SCT250
     FM241900 05014G23KT P6SM BKN035 BKN060
     FM242200 05013KT P6SM SCT040 SCT080
     FM250200 05011KT P6SM SCT012=



000
FTUS42 KILM 241500 AAA
TAFLBT
TAF AMD
KLBT 241538Z 2416/2512 06012G22KT P6SM SCT035 SCT250
     FM250100 04007KT P6SM SKC=



000
FTUS42 KILM 241500 AAA
TAFFLO
TAF AMD
KFLO 241538Z 2416/2512 06012G22KT P6SM SCT015 BKN250
     FM241900 06011G17KT P6SM SCT035
     FM250100 04007KT P6SM SKC=



000
FTUS42 KILM 241100 CCA
TAFMYR
TAF COR
KMYR 241157Z 2412/2512 03014KT P6SM SCT008 BKN070
      TEMPO 2412/2414 BKN010
     FM241400 04016G25KT P6SM SCT015 SCT050 SCT250
      TEMPO 2414/2417 BKN020
     FM241700 05014G23KT P6SM VCSH BKN035 BKN060
     FM242200 05013KT P6SM SCT040 SCT080
     FM250200 05011KT P6SM SCT012=



000
FTUS42 KILM 241100 CCA
TAFFLO
TAF COR
KFLO 241156Z 2412/2512 06012KT P6SM BKN015 BKN045
     FM241400 06012G22KT P6SM SCT015 BKN045 BKN250
      TEMPO 2414/2417 BKN015
     FM241700 06011G17KT P6SM SCT035
     FM250100 04007KT P6SM SKC=



000
FTUS42 KILM 241100 CCA
TAFLBT
TAF COR
KLBT 241123Z 2412/2512 05009KT P6SM SCT010
     FM241400 06012G22KT P6SM SCT015 SCT250
      TEMPO 2414/2417 BKN020
     FM241700 06011G17KT P6SM FEW035
     FM250100 04007KT P6SM SKC=



000
FTUS42 KILM 241100
TAFFLO
TAF
KFLO 241122Z 2412/2512 06010KT P6SM BKN008
     FM241300 06012G22KT P6SM SCT010 BKN250
      TEMPO 2414/2417 BKN015
     FM241700 06011G17KT P6SM SCT035
     FM250100 04007KT P6SM SKC=



000
FTUS42 KILM 241100
TAFILM
TAF
KILM 241122Z 2412/2512 03012KT P6SM FEW010 SCT250
     FM241400 04016G25KT P6SM SCT020 SCT250
      TEMPO 2414/2417 BKN025
     FM241700 05016G23KT P6SM BKN035 BKN060
     FM242200 05013KT P6SM SCT040
     FM250200 02009KT P6SM SCT012=



000
FTUS42 KILM 241100
TAFCRE
TAF
KCRE 241122Z 2412/2512 03012KT P6SM SCT010 SCT250
      TEMPO 2412/2413 BKN010
     FM241400 04013G22KT P6SM SCT015 SCT250
      TEMPO 2414/2417 BKN020
     FM241700 05011G20KT P6SM VCSH BKN035 BKN060
     FM242200 05012KT P6SM SCT040 SCT080
     FM250200 04009KT P6SM SCT012=



000
FTUS42 KILM 241100
TAFLBT
TAF
KLBT 241122Z 2412/2512 05009KT P6SM BKN010
     FM241300 06012G22KT P6SM SCT015 SCT250
      TEMPO 2414/2417 BKN020
     FM241700 06011G17KT P6SM FEW035
     FM250100 04007KT P6SM SKC=



000
FTUS42 KILM 241100
TAFMYR
TAF
KMYR 241122Z 2412/2512 03012KT P6SM SCT010
      TEMPO 2412/2414 BKN010
     FM241400 04016G25KT P6SM SCT015 SCT250
      TEMPO 2414/2417 BKN020
     FM241700 05014G23KT P6SM VCSH BKN035 BKN060
     FM242200 05013KT P6SM SCT040 SCT080
     FM250200 05011KT P6SM SCT012=



    US Dept of Commerce
    National Oceanic and Atmospheric Administration
    National Weather Service
    1325 East West Highway
    Silver Spring, MD 20910
    Page Author: NWS Internet Services Team
Disclaimer
Information Quality
Credits
Glossary
Privacy Policy
Freedom of Information Act (FOIA)
About Us
Career Opportunities